createdAt,value
2019-03-23T00:00:19.413Z,13.00
2019-03-23T00:02:47.866Z,12.03
2019-03-23T00:05:16.299Z,15.10
2019-03-23T00:07:44.714Z,17.80
2019-03-23T00:10:13.207Z,14.83
2019-03-23T00:12:41.627Z,15.30
2019-03-23T00:15:11.390Z,13.20
2019-03-23T00:17:39.812Z,14.80
2019-03-23T00:20:08.390Z,14.27
2019-03-23T00:22:37.028Z,14.87
2019-03-23T00:25:05.999Z,15.43
2019-03-23T00:27:34.583Z,17.30
2019-03-23T00:30:04.543Z,14.33
2019-03-23T00:32:33.115Z,12.80
2019-03-23T00:35:01.548Z,12.53
2019-03-23T00:37:29.991Z,13.17
2019-03-23T00:39:58.553Z,14.67
2019-03-23T00:42:26.967Z,15.93
2019-03-23T00:44:55.418Z,16.60
2019-03-23T00:47:25.899Z,16.17
2019-03-23T00:49:54.346Z,13.83
2019-03-23T00:52:22.860Z,12.17
2019-03-23T00:54:51.294Z,15.90
2019-03-23T00:57:19.777Z,17.10
2019-03-23T00:59:48.253Z,17.10
2019-03-23T01:02:16.676Z,16.37
2019-03-23T01:04:45.108Z,15.23
2019-03-23T01:07:13.554Z,14.20
2019-03-23T01:09:41.999Z,13.83
2019-03-23T01:12:10.470Z,14.97
2019-03-23T01:14:38.958Z,16.90
2019-03-23T01:17:07.434Z,14.83
2019-03-23T01:19:35.918Z,16.50
2019-03-23T01:22:04.347Z,20.27
2019-03-23T01:24:32.775Z,23.60
2019-03-23T01:27:01.247Z,21.73
2019-03-23T01:29:29.659Z,13.87
2019-03-23T01:31:58.144Z,16.63
2019-03-23T01:34:26.590Z,18.07
2019-03-23T01:37:02.431Z,17.70
2019-03-23T01:39:25.200Z,15.30
2019-03-23T01:41:53.630Z,15.53
2019-03-23T01:44:22.066Z,17.27
2019-03-23T01:46:50.582Z,18.60
2019-03-23T01:49:19.436Z,17.97
2019-03-23T01:51:47.939Z,17.50
2019-03-23T01:54:16.371Z,17.47
2019-03-23T01:56:44.810Z,17.83
2019-03-23T01:59:13.262Z,17.27
2019-03-23T02:01:41.770Z,16.90
2019-03-23T02:04:10.229Z,18.80
2019-03-23T02:06:38.656Z,17.43
2019-03-23T02:09:07.482Z,16.07
2019-03-23T02:11:36.004Z,21.83
2019-03-23T02:14:04.447Z,17.20
2019-03-23T02:16:32.927Z,17.93
2019-03-23T02:19:01.370Z,13.33
2019-03-23T02:21:29.848Z,17.13
2019-03-23T02:23:58.284Z,15.63
2019-03-23T02:26:26.757Z,17.07
2019-03-23T02:28:55.211Z,16.20
2019-03-23T02:31:23.674Z,18.57
2019-03-23T02:33:52.318Z,18.30
2019-03-23T02:36:20.859Z,19.77
2019-03-23T02:38:49.271Z,19.10
2019-03-23T02:41:17.736Z,17.07
2019-03-23T02:43:46.149Z,19.33
2019-03-23T02:46:14.627Z,20.90
2019-03-23T02:48:43.084Z,23.00
2019-03-23T02:51:11.527Z,18.37
2019-03-23T02:53:40.068Z,18.50
2019-03-23T02:56:08.527Z,20.37
2019-03-23T02:58:36.959Z,17.87
2019-03-23T03:01:05.437Z,19.13
2019-03-23T03:03:33.931Z,24.03
2019-03-23T03:06:02.389Z,23.53
2019-03-23T03:08:30.905Z,20.20
2019-03-23T03:10:59.390Z,18.87
2019-03-23T03:13:27.844Z,18.97
2019-03-23T03:15:56.305Z,18.97
2019-03-23T03:18:24.835Z,20.70
2019-03-23T03:20:53.308Z,20.70
2019-03-23T03:23:21.741Z,21.10
2019-03-23T03:25:50.181Z,22.43
2019-03-23T03:28:18.630Z,19.87
2019-03-23T03:30:47.102Z,20.43
2019-03-23T03:33:15.581Z,18.23
2019-03-23T03:35:44.122Z,24.87
2019-03-23T03:38:12.603Z,25.70
2019-03-23T03:40:41.027Z,22.80
2019-03-23T03:43:09.462Z,21.83
2019-03-23T03:45:37.947Z,22.30
2019-03-23T03:48:06.380Z,22.90
2019-03-23T03:50:34.831Z,22.83
2019-03-23T03:53:03.303Z,24.03
2019-03-23T03:55:31.768Z,23.10
2019-03-23T03:58:00.223Z,22.53
2019-03-23T04:00:28.672Z,21.43
2019-03-23T04:02:57.184Z,28.37
2019-03-23T04:05:25.620Z,24.73
2019-03-23T04:07:54.063Z,25.53
2019-03-23T04:10:22.524Z,25.50
2019-03-23T04:12:50.947Z,22.70
2019-03-23T04:15:19.401Z,21.07
2019-03-23T04:17:47.862Z,22.07
2019-03-23T04:20:16.313Z,24.47
2019-03-23T04:22:44.808Z,23.13
2019-03-23T04:25:13.319Z,26.40
2019-03-23T04:27:41.799Z,27.00
2019-03-23T04:30:11.870Z,25.03
2019-03-23T04:32:40.478Z,23.00
2019-03-23T04:35:10.049Z,22.80
2019-03-23T04:37:38.623Z,25.50
2019-03-23T04:40:10.104Z,27.00
2019-03-23T04:42:38.528Z,32.37
2019-03-23T04:45:09.005Z,24.47
2019-03-23T04:47:37.632Z,26.40
2019-03-23T04:50:10.741Z,25.57
2019-03-23T04:52:39.263Z,27.87
2019-03-23T04:55:12.291Z,24.97
2019-03-23T04:57:40.987Z,29.47
2019-03-23T05:00:12.512Z,25.63
2019-03-23T05:02:40.951Z,24.63
2019-03-23T05:05:09.518Z,26.37
2019-03-23T05:07:38.005Z,27.70
2019-03-23T05:10:07.578Z,26.77
2019-03-23T05:12:35.999Z,29.77
2019-03-23T05:15:06.271Z,27.10
2019-03-23T05:17:34.963Z,33.50
2019-03-23T05:20:33.216Z,38.13
2019-03-23T05:23:04.580Z,32.03
2019-03-23T05:25:42.119Z,30.30
2019-03-23T05:28:13.158Z,26.87
2019-03-23T05:30:48.055Z,29.43
2019-03-23T05:33:16.884Z,26.03
2019-03-23T05:35:45.372Z,28.03
2019-03-23T05:38:14.163Z,23.63
2019-03-23T05:40:43.573Z,29.43
2019-03-23T05:43:13.376Z,27.93
2019-03-23T05:45:43.435Z,27.67
2019-03-23T05:48:14.166Z,27.07
2019-03-23T05:50:44.656Z,27.23
2019-03-23T05:53:14.040Z,32.90
2019-03-23T05:55:43.321Z,28.63
2019-03-23T05:58:14.037Z,29.30
2019-03-23T06:00:43.461Z,31.33
2019-03-23T06:03:13.653Z,31.10
2019-03-23T06:05:44.372Z,31.37
2019-03-23T06:08:13.607Z,37.37
2019-03-23T06:10:44.646Z,30.80
2019-03-23T06:13:15.703Z,31.87
2019-03-23T06:15:45.207Z,27.80
2019-03-23T06:18:15.261Z,31.27
2019-03-23T06:20:44.533Z,28.97
2019-03-23T06:23:15.581Z,27.83
2019-03-23T06:25:45.616Z,20.80
2019-03-23T06:28:14.552Z,22.93
2019-03-23T06:30:44.939Z,23.77
2019-03-23T06:33:14.633Z,30.53
2019-03-23T06:35:43.574Z,43.27
2019-03-23T06:38:13.315Z,68.90
2019-03-23T06:40:45.818Z,58.87
2019-03-23T06:43:14.845Z,33.63
2019-03-23T06:45:44.097Z,25.70
2019-03-23T06:48:13.903Z,21.60
2019-03-23T06:50:43.542Z,23.63
2019-03-23T06:53:14.778Z,28.97
2019-03-23T06:55:44.537Z,23.93
2019-03-23T06:58:13.351Z,25.67
2019-03-23T07:00:43.909Z,19.13
2019-03-23T07:03:16.973Z,24.57
2019-03-23T07:05:45.407Z,20.27
2019-03-23T07:08:14.651Z,17.53
2019-03-23T07:10:44.002Z,14.77
2019-03-23T07:13:13.743Z,16.93
2019-03-23T07:16:30.865Z,12.57
2019-03-23T07:19:00.782Z,11.03
2019-03-23T07:21:30.907Z,12.30
2019-03-23T07:24:00.824Z,15.87
2019-03-23T07:26:39.471Z,15.70
2019-03-23T07:29:13.167Z,16.17
2019-03-23T07:31:42.891Z,15.43
2019-03-23T07:34:14.908Z,14.33
2019-03-23T07:36:48.141Z,16.37
2019-03-23T07:39:26.501Z,14.27
2019-03-23T07:41:46.738Z,12.70
2019-03-23T07:47:09.613Z,16.73
2019-03-23T07:49:46.450Z,15.30
2019-03-23T07:52:20.843Z,16.30
2019-03-23T07:54:49.359Z,16.30
2019-03-23T07:57:19.511Z,14.53
2019-03-23T07:59:48.126Z,15.73
2019-03-23T08:02:16.553Z,18.63
2019-03-23T08:12:38.852Z,20.87
2019-03-23T08:15:18.090Z,15.77
2019-03-23T08:17:46.528Z,17.43
2019-03-23T08:20:38.583Z,15.57
2019-03-23T08:23:13.276Z,17.70
2019-03-23T08:25:44.488Z,18.93
2019-03-23T08:28:13.749Z,16.60
2019-03-23T08:33:48.354Z,17.00
2019-03-23T08:37:13.877Z,17.73
2019-03-23T08:39:48.674Z,18.57
2019-03-23T08:42:14.744Z,19.63
2019-03-23T08:44:43.279Z,21.80
2019-03-23T08:47:11.859Z,22.03
2019-03-23T08:49:40.311Z,20.77
2019-03-23T08:52:08.765Z,23.20
2019-03-23T08:54:37.240Z,25.20
2019-03-23T08:57:05.700Z,22.83
2019-03-23T08:59:34.166Z,24.77
2019-03-23T09:02:02.659Z,24.60
2019-03-23T09:04:31.112Z,26.77
2019-03-23T09:06:59.568Z,24.07
2019-03-23T09:09:28.046Z,24.10
2019-03-23T09:11:56.528Z,24.63
2019-03-23T09:14:24.983Z,24.90
2019-03-23T09:16:53.413Z,24.87
2019-03-23T09:19:21.864Z,23.87
2019-03-23T09:21:50.366Z,27.53
2019-03-23T09:24:18.837Z,37.27
2019-03-23T09:26:47.544Z,37.47
2019-03-23T09:29:16.022Z,27.33
2019-03-23T09:31:44.582Z,28.93
2019-03-23T09:34:13.071Z,28.73
2019-03-23T09:36:41.558Z,28.17
2019-03-23T09:39:10.017Z,29.67
2019-03-23T09:41:38.512Z,32.60
2019-03-23T09:44:06.947Z,30.33
2019-03-23T09:46:35.399Z,32.70
2019-03-23T09:49:03.873Z,32.23
2019-03-23T09:51:32.366Z,35.90
2019-03-23T09:54:00.797Z,37.43
2019-03-23T09:56:29.249Z,36.07
2019-03-23T09:58:57.695Z,38.07
2019-03-23T10:01:26.147Z,39.53
2019-03-23T10:03:54.621Z,40.13
2019-03-23T10:06:23.197Z,37.27
2019-03-23T10:08:51.691Z,38.37
2019-03-23T10:11:20.174Z,38.33
2019-03-23T10:13:48.617Z,37.63
2019-03-23T10:16:17.104Z,41.23
2019-03-23T10:18:45.660Z,42.13
2019-03-23T10:21:14.116Z,41.13
2019-03-23T10:23:42.594Z,42.40
2019-03-23T10:26:11.257Z,44.10
2019-03-23T10:28:39.717Z,41.47
2019-03-23T10:31:08.155Z,42.77
2019-03-23T10:33:36.628Z,45.60
2019-03-23T10:36:05.407Z,46.27
2019-03-23T10:38:33.905Z,45.47
2019-03-23T10:41:02.348Z,45.37
2019-03-23T10:43:30.854Z,45.27
2019-03-23T10:45:59.315Z,39.90
2019-03-23T10:48:27.745Z,41.50
2019-03-23T10:50:56.211Z,43.63
2019-03-23T10:53:24.670Z,41.27
2019-03-23T10:55:53.147Z,39.57
2019-03-23T10:58:21.631Z,39.80
2019-03-23T11:00:51.531Z,43.17
2019-03-23T11:03:20.020Z,44.03
2019-03-23T11:05:48.467Z,40.27
2019-03-23T11:08:16.928Z,43.27
2019-03-23T11:10:45.363Z,34.00
2019-03-23T11:13:13.836Z,34.37
2019-03-23T11:15:42.324Z,39.27
2019-03-23T11:18:10.821Z,33.10
2019-03-23T11:20:39.302Z,35.90
2019-03-23T11:23:07.798Z,32.77
2019-03-23T11:25:36.231Z,35.27
2019-03-23T11:28:04.848Z,36.07
2019-03-23T11:30:33.304Z,33.03
2019-03-23T11:33:01.723Z,31.57
2019-03-23T11:35:30.218Z,31.73
2019-03-23T11:37:59.276Z,30.67
2019-03-23T11:40:28.875Z,26.90
2019-03-23T11:42:57.607Z,31.73
2019-03-23T11:45:26.128Z,29.27
2019-03-23T11:47:54.604Z,31.70
2019-03-23T11:50:23.139Z,28.17
2019-03-23T11:52:51.618Z,28.70
2019-03-23T11:55:20.093Z,27.27
2019-03-23T11:57:48.560Z,26.73
2019-03-23T12:00:17.453Z,30.10
2019-03-23T12:02:46.001Z,28.10
2019-03-23T12:05:14.708Z,26.90
2019-03-23T12:07:43.128Z,29.17
2019-03-23T12:10:13.026Z,28.70
2019-03-23T12:12:41.607Z,31.67
2019-03-23T12:15:12.650Z,27.83
2019-03-23T12:17:41.113Z,32.00
2019-03-23T12:20:12.077Z,32.20
2019-03-23T12:22:40.592Z,27.30
2019-03-23T12:25:10.787Z,25.30
2019-03-23T12:27:40.850Z,29.67
2019-03-23T12:30:14.995Z,28.17
2019-03-23T12:32:45.455Z,43.00
2019-03-23T12:35:14.085Z,28.13
2019-03-23T12:37:42.614Z,29.33
2019-03-23T12:40:11.821Z,32.20
2019-03-23T12:42:40.352Z,29.83
2019-03-23T12:45:09.304Z,31.70
2019-03-23T12:47:37.824Z,30.53
2019-03-23T12:50:08.065Z,28.47
2019-03-23T12:52:36.520Z,29.33
2019-03-23T12:55:07.490Z,28.87
2019-03-23T12:57:35.939Z,29.97
2019-03-23T13:00:07.479Z,29.80
2019-03-23T13:02:35.974Z,27.63
2019-03-23T13:05:06.514Z,31.53
2019-03-23T13:07:34.979Z,27.43
2019-03-23T13:10:04.358Z,31.10
2019-03-23T13:12:32.831Z,26.60
2019-03-23T13:15:01.293Z,25.93
2019-03-23T13:17:30.771Z,37.17
2019-03-23T13:19:59.234Z,33.90
2019-03-23T13:22:27.751Z,32.67
2019-03-23T13:24:58.335Z,28.90
2019-03-23T13:27:26.774Z,30.13
2019-03-23T13:29:55.199Z,25.50
2019-03-23T13:32:23.647Z,27.77
2019-03-23T13:34:53.003Z,27.83
2019-03-23T13:37:21.459Z,25.87
2019-03-23T13:39:50.099Z,26.27
2019-03-23T13:42:18.616Z,26.83
2019-03-23T13:44:47.064Z,25.53
2019-03-23T13:47:15.501Z,28.50
2019-03-23T13:49:43.951Z,25.27
2019-03-23T13:52:12.489Z,25.17
2019-03-23T13:54:40.929Z,26.87
2019-03-23T13:57:09.394Z,30.23
2019-03-23T13:59:37.844Z,25.17
2019-03-23T14:02:06.298Z,27.10
2019-03-23T14:04:34.726Z,25.43
2019-03-23T14:07:03.174Z,26.50
2019-03-23T14:09:31.637Z,27.50
2019-03-23T14:12:00.179Z,25.63
2019-03-23T14:14:28.659Z,25.67
2019-03-23T14:16:58.218Z,24.93
2019-03-23T14:19:26.744Z,26.93
2019-03-23T14:21:55.204Z,31.47
2019-03-23T14:24:23.652Z,29.33
2019-03-23T14:26:52.101Z,29.63
2019-03-23T14:29:20.565Z,25.33
2019-03-23T14:31:49.033Z,25.23
2019-03-23T14:34:17.505Z,26.67
2019-03-23T14:36:45.955Z,25.17
2019-03-23T14:39:14.398Z,26.93
2019-03-23T14:41:42.830Z,27.90
2019-03-23T14:44:11.340Z,24.83
2019-03-23T14:46:39.785Z,28.30
2019-03-23T14:49:08.292Z,30.00
2019-03-23T14:51:36.740Z,35.63
2019-03-23T14:54:05.379Z,33.63
2019-03-23T14:56:33.817Z,31.40
2019-03-23T14:59:02.337Z,29.43
2019-03-23T15:01:30.785Z,27.57
2019-03-23T15:03:59.222Z,28.00
2019-03-23T15:06:27.660Z,33.03
2019-03-23T15:08:56.162Z,35.57
2019-03-23T15:11:24.621Z,29.77
2019-03-23T15:13:53.064Z,28.37
2019-03-23T15:16:21.535Z,30.30
2019-03-23T15:18:49.993Z,31.20
2019-03-23T15:21:18.469Z,30.67
2019-03-23T15:23:46.894Z,30.53
2019-03-23T15:26:15.363Z,31.73
2019-03-23T15:28:43.790Z,33.23
2019-03-23T15:31:12.248Z,29.97
2019-03-23T15:33:42.514Z,30.80
2019-03-23T15:36:10.958Z,30.37
2019-03-23T15:38:39.383Z,31.33
2019-03-23T15:41:07.840Z,31.10
2019-03-23T15:43:36.276Z,33.07
2019-03-23T15:46:04.790Z,34.33
2019-03-23T15:48:33.247Z,29.90
2019-03-23T15:51:03.299Z,33.53
2019-03-23T15:53:31.809Z,33.40
2019-03-23T15:56:02.117Z,33.43
2019-03-23T15:58:30.598Z,30.63
2019-03-23T16:00:59.063Z,29.57
2019-03-23T16:03:27.532Z,34.43
2019-03-23T16:05:55.986Z,31.07
2019-03-23T16:08:24.443Z,32.27
2019-03-23T16:10:52.987Z,31.03
2019-03-23T16:13:21.467Z,34.73
2019-03-23T16:15:50.004Z,35.43
2019-03-23T16:18:18.443Z,37.03
2019-03-23T16:20:46.900Z,33.90
2019-03-23T16:23:18.288Z,33.77
2019-03-23T16:25:46.989Z,33.00
2019-03-23T16:28:15.505Z,31.63
2019-03-23T16:30:43.960Z,33.80
2019-03-23T16:33:12.399Z,35.77
2019-03-23T16:35:41.050Z,33.40
2019-03-23T16:38:09.512Z,36.40
2019-03-23T16:40:38.012Z,35.03
2019-03-23T16:43:06.561Z,42.17
2019-03-23T16:45:35.047Z,38.37
2019-03-23T16:48:04.019Z,38.67
2019-03-23T16:50:51.797Z,43.27
2019-03-23T16:53:20.440Z,33.13
2019-03-23T16:55:48.908Z,36.67
2019-03-23T16:58:17.336Z,39.20
2019-03-23T17:00:45.804Z,34.40
2019-03-23T17:03:15.007Z,33.13
2019-03-23T17:05:43.971Z,31.00
2019-03-23T17:08:15.261Z,34.30
2019-03-23T17:10:45.166Z,32.60
2019-03-23T17:13:13.774Z,40.00
2019-03-23T17:15:45.114Z,34.83
2019-03-23T17:18:36.415Z,36.67
2019-03-23T17:41:52.453Z,32.37
2019-03-23T17:44:20.918Z,32.97
2019-03-23T17:47:08.681Z,39.27
2019-03-23T17:49:37.132Z,41.30
2019-03-23T17:52:05.699Z,34.70
2019-03-23T17:54:34.123Z,42.07
2019-03-23T17:57:02.595Z,45.07
2019-03-23T17:59:31.041Z,43.83
2019-03-23T18:01:59.466Z,43.50
2019-03-23T18:04:28.026Z,46.90
2019-03-23T18:06:56.530Z,44.67
2019-03-23T18:09:24.987Z,39.90
2019-03-23T18:11:53.447Z,48.20
2019-03-23T18:14:23.766Z,47.23
2019-03-23T18:16:52.250Z,42.63
2019-03-23T18:19:20.697Z,51.57
2019-03-23T18:21:49.120Z,44.97
2019-03-23T18:24:17.598Z,46.23
2019-03-23T18:26:46.087Z,51.00
2019-03-23T18:29:14.560Z,50.13
2019-03-23T18:31:42.970Z,51.50
2019-03-23T18:34:11.502Z,56.13
2019-03-23T18:36:40.233Z,51.63
2019-03-23T18:39:08.704Z,51.57
2019-03-23T18:41:37.171Z,56.70
2019-03-23T18:44:24.999Z,43.83
2019-03-23T18:46:53.435Z,45.00
2019-03-23T18:49:21.979Z,53.93
2019-03-23T18:51:50.411Z,62.47
2019-03-23T18:54:18.837Z,59.03
2019-03-23T18:56:47.479Z,56.80
2019-03-23T18:59:15.931Z,59.93
2019-03-23T19:01:44.987Z,63.37
2019-03-23T19:04:15.427Z,58.70
2019-03-23T19:06:44.856Z,57.03
2019-03-23T19:09:20.604Z,59.50
2019-03-23T19:11:49.196Z,53.90
2019-03-23T19:14:17.634Z,60.70
2019-03-23T19:16:46.085Z,65.40
2019-03-23T19:19:14.910Z,58.33
2019-03-23T19:21:44.217Z,60.70
2019-03-23T19:24:14.060Z,56.60
2019-03-23T19:26:44.286Z,62.10
2019-03-23T19:29:14.268Z,64.60
2019-03-23T19:31:43.680Z,64.97
2019-03-23T19:34:14.136Z,60.67
2019-03-23T19:36:44.736Z,57.00
2019-03-23T19:39:15.951Z,60.03
2019-03-23T19:41:44.649Z,62.23
2019-03-23T19:44:14.671Z,58.97
2019-03-23T19:46:44.789Z,63.83
2019-03-23T19:49:38.009Z,63.00
2019-03-23T19:52:11.881Z,69.17
2019-03-23T19:57:37.129Z,69.53
2019-03-23T20:00:13.359Z,72.60
2019-03-23T20:02:43.786Z,80.33
2019-03-23T20:05:13.451Z,65.37
2019-03-23T20:07:44.337Z,66.27
2019-03-23T20:10:14.173Z,74.63
2019-03-23T20:12:45.017Z,72.23
2019-03-23T20:15:16.276Z,78.73
2019-03-23T20:17:45.541Z,75.50
2019-03-23T20:20:14.614Z,81.10
2019-03-23T20:22:44.250Z,78.70
2019-03-23T20:25:14.733Z,73.43
2019-03-23T20:27:44.461Z,71.87
2019-03-23T20:30:14.890Z,68.63
2019-03-23T20:32:44.286Z,75.90
2019-03-23T20:35:15.731Z,79.27
2019-03-23T20:38:38.344Z,78.97
2019-03-23T20:41:26.224Z,80.57
2019-03-23T20:43:54.753Z,80.73
2019-03-23T20:46:24.089Z,83.33
2019-03-23T20:48:53.153Z,84.33
2019-03-23T20:51:27.267Z,79.57
2019-03-23T20:53:55.793Z,83.50
2019-03-23T20:56:24.248Z,82.23
2019-03-23T20:58:52.712Z,79.63
2019-03-23T21:01:21.294Z,85.70
2019-03-23T21:03:49.764Z,91.07
2019-03-23T21:06:18.216Z,93.97
2019-03-23T21:08:46.656Z,85.70
2019-03-23T21:11:15.088Z,87.67
2019-03-23T21:13:43.534Z,91.73
2019-03-23T21:16:11.975Z,89.67
2019-03-23T21:18:40.473Z,91.40
2019-03-23T21:21:08.924Z,86.57
2019-03-23T21:23:37.545Z,91.30
2019-03-23T21:26:05.990Z,90.20
2019-03-23T21:28:34.464Z,98.93
2019-03-23T21:31:02.953Z,91.97
2019-03-23T21:33:32.130Z,96.57
2019-03-23T21:36:01.577Z,93.97
2019-03-23T21:38:30.075Z,97.73
2019-03-23T21:40:58.561Z,91.80
2019-03-23T21:43:27.036Z,96.93
2019-03-23T21:45:55.564Z,97.90
2019-03-23T21:48:24.105Z,99.13
2019-03-23T21:50:52.563Z,97.03
2019-03-23T21:53:20.978Z,95.07
2019-03-23T21:55:49.679Z,102.90
2019-03-23T21:58:18.099Z,93.40
2019-03-23T22:00:46.572Z,101.53
2019-03-23T22:03:15.036Z,102.63
2019-03-23T22:05:43.518Z,94.17
2019-03-23T22:08:11.926Z,93.83
2019-03-23T22:10:40.372Z,99.20
2019-03-23T22:13:08.862Z,105.33
2019-03-23T22:15:37.328Z,102.40
2019-03-23T22:18:05.828Z,104.97
2019-03-23T22:20:34.282Z,98.33
2019-03-23T22:23:02.757Z,99.67
2019-03-23T22:25:31.268Z,109.93
2019-03-23T22:27:59.734Z,100.97
2019-03-23T22:30:28.177Z,112.00
2019-03-23T22:32:56.623Z,102.30
2019-03-23T22:35:25.083Z,106.77
2019-03-23T22:37:53.574Z,106.00
2019-03-23T22:40:22.027Z,114.60
2019-03-23T22:42:50.505Z,111.80
2019-03-23T22:45:18.938Z,109.27
2019-03-23T22:47:47.392Z,113.63
2019-03-23T22:50:15.846Z,116.77
2019-03-23T22:52:44.350Z,112.07
2019-03-23T22:55:12.782Z,113.23
2019-03-23T22:57:41.328Z,107.10
2019-03-23T23:00:17.475Z,115.70
2019-03-23T23:02:46.390Z,111.13
2019-03-23T23:05:15.020Z,136.30
2019-03-23T23:07:43.547Z,123.00
2019-03-23T23:10:12.446Z,115.00
2019-03-23T23:12:40.947Z,115.27
2019-03-23T23:15:09.488Z,118.23
2019-03-23T23:17:38.059Z,132.23
2019-03-23T23:20:10.859Z,126.80
2019-03-23T23:22:39.321Z,120.10
2019-03-23T23:25:08.423Z,140.50
2019-03-23T23:27:37.067Z,135.57
2019-03-23T23:30:10.545Z,125.40
2019-03-23T23:32:39.042Z,136.30
2019-03-23T23:35:09.404Z,143.63
2019-03-23T23:37:38.045Z,129.13
2019-03-23T23:40:07.425Z,131.97
2019-03-23T23:42:36.046Z,139.67
2019-03-23T23:45:15.171Z,137.00
2019-03-23T23:47:39.553Z,135.77
2019-03-23T23:50:08.633Z,133.43
2019-03-23T23:52:37.072Z,139.67
2019-03-23T23:55:06.968Z,145.80
2019-03-23T23:57:35.411Z,133.17
